sensor_id;sensor_type;location;lat;lon;timestamp;P1;durP1;ratioP1;P2;durP2;ratioP2
79597;SDS011;69081;53.572;9.970;2023-09-30T00:00:57;4.53;;;3.58;;
79597;SDS011;69081;53.572;9.970;2023-09-30T00:03:26;4.00;;;2.90;;
79597;SDS011;69081;53.572;9.970;2023-09-30T00:05:54;5.45;;;3.75;;
79597;SDS011;69081;53.572;9.970;2023-09-30T00:08:24;4.78;;;3.03;;
79597;SDS011;69081;53.572;9.970;2023-09-30T00:10:52;4.63;;;3.50;;
79597;SDS011;69081;53.572;9.970;2023-09-30T00:13:21;4.68;;;3.53;;
79597;SDS011;69081;53.572;9.970;2023-09-30T00:15:49;3.90;;;3.25;;
79597;SDS011;69081;53.572;9.970;2023-09-30T00:18:17;4.93;;;3.25;;
79597;SDS011;69081;53.572;9.970;2023-09-30T00:20:45;8.65;;;3.40;;
79597;SDS011;69081;53.572;9.970;2023-09-30T00:23:13;6.07;;;3.28;;
79597;SDS011;69081;53.572;9.970;2023-09-30T00:25:42;5.80;;;3.28;;
79597;SDS011;69081;53.572;9.970;2023-09-30T00:28:11;4.25;;;3.40;;
79597;SDS011;69081;53.572;9.970;2023-09-30T00:30:39;4.10;;;2.88;;
79597;SDS011;69081;53.572;9.970;2023-09-30T00:33:07;4.35;;;2.85;;
79597;SDS011;69081;53.572;9.970;2023-09-30T00:35:35;3.60;;;2.70;;
79597;SDS011;69081;53.572;9.970;2023-09-30T00:38:04;5.35;;;3.00;;
79597;SDS011;69081;53.572;9.970;2023-09-30T00:40:32;3.45;;;2.55;;
79597;SDS011;69081;53.572;9.970;2023-09-30T00:43:03;3.38;;;2.67;;
79597;SDS011;69081;53.572;9.970;2023-09-30T00:45:31;4.28;;;3.00;;
79597;SDS011;69081;53.572;9.970;2023-09-30T00:47:59;4.13;;;2.88;;
79597;SDS011;69081;53.572;9.970;2023-09-30T00:50:27;4.18;;;3.30;;
79597;SDS011;69081;53.572;9.970;2023-09-30T00:52:55;2.97;;;2.60;;
79597;SDS011;69081;53.572;9.970;2023-09-30T00:55:24;3.90;;;3.00;;
79597;SDS011;69081;53.572;9.970;2023-09-30T00:57:52;4.53;;;2.83;;
79597;SDS011;69081;53.572;9.970;2023-09-30T01:00:21;3.45;;;3.00;;
79597;SDS011;69081;53.572;9.970;2023-09-30T01:02:52;3.70;;;2.75;;
79597;SDS011;69081;53.572;9.970;2023-09-30T01:05:20;4.03;;;2.92;;
79597;SDS011;69081;53.572;9.970;2023-09-30T01:07:48;3.95;;;3.00;;
79597;SDS011;69081;53.572;9.970;2023-09-30T01:10:16;3.42;;;2.92;;
79597;SDS011;69081;53.572;9.970;2023-09-30T01:12:44;3.38;;;2.60;;
79597;SDS011;69081;53.572;9.970;2023-09-30T01:15:13;3.75;;;2.58;;
79597;SDS011;69081;53.572;9.970;2023-09-30T01:17:42;3.28;;;2.65;;
79597;SDS011;69081;53.572;9.970;2023-09-30T01:20:11;3.63;;;2.67;;
79597;SDS011;69081;53.572;9.970;2023-09-30T01:22:50;5.07;;;3.65;;
79597;SDS011;69081;53.572;9.970;2023-09-30T01:25:18;2.92;;;2.42;;
79597;SDS011;69081;53.572;9.970;2023-09-30T01:27:46;4.20;;;2.60;;
79597;SDS011;69081;53.572;9.970;2023-09-30T01:30:14;3.42;;;2.65;;
79597;SDS011;69081;53.572;9.970;2023-09-30T01:32:42;3.15;;;2.33;;
79597;SDS011;69081;53.572;9.970;2023-09-30T01:35:10;3.33;;;2.63;;
79597;SDS011;69081;53.572;9.970;2023-09-30T01:37:38;4.18;;;2.47;;
79597;SDS011;69081;53.572;9.970;2023-09-30T01:40:08;3.13;;;2.70;;
79597;SDS011;69081;53.572;9.970;2023-09-30T01:42:38;3.08;;;2.55;;
79597;SDS011;69081;53.572;9.970;2023-09-30T01:45:06;2.90;;;2.25;;
79597;SDS011;69081;53.572;9.970;2023-09-30T01:47:35;6.03;;;2.70;;
79597;SDS011;69081;53.572;9.970;2023-09-30T01:50:03;3.95;;;2.95;;
79597;SDS011;69081;53.572;9.970;2023-09-30T01:52:32;3.30;;;2.47;;
79597;SDS011;69081;53.572;9.970;2023-09-30T01:55:00;2.95;;;2.40;;
79597;SDS011;69081;53.572;9.970;2023-09-30T01:57:29;3.28;;;2.60;;
79597;SDS011;69081;53.572;9.970;2023-09-30T01:59:57;3.00;;;2.70;;
79597;SDS011;69081;53.572;9.970;2023-09-30T02:02:25;3.08;;;2.28;;
79597;SDS011;69081;53.572;9.970;2023-09-30T02:04:54;3.05;;;2.35;;
79597;SDS011;69081;53.572;9.970;2023-09-30T02:07:22;3.20;;;2.47;;
79597;SDS011;69081;53.572;9.970;2023-09-30T02:09:50;2.97;;;2.22;;
79597;SDS011;69081;53.572;9.970;2023-09-30T02:12:18;3.90;;;2.55;;
79597;SDS011;69081;53.572;9.970;2023-09-30T02:14:47;3.15;;;2.17;;
79597;SDS011;69081;53.572;9.970;2023-09-30T02:17:15;3.08;;;2.42;;
79597;SDS011;69081;53.572;9.970;2023-09-30T02:19:44;3.40;;;2.45;;
79597;SDS011;69081;53.572;9.970;2023-09-30T02:22:12;4.65;;;2.58;;
79597;SDS011;69081;53.572;9.970;2023-09-30T02:24:40;4.32;;;2.80;;
79597;SDS011;69081;53.572;9.970;2023-09-30T02:27:08;2.97;;;2.13;;
79597;SDS011;69081;53.572;9.970;2023-09-30T02:29:36;3.45;;;2.45;;
79597;SDS011;69081;53.572;9.970;2023-09-30T02:32:05;2.55;;;2.05;;
79597;SDS011;69081;53.572;9.970;2023-09-30T02:34:33;3.03;;;2.15;;
79597;SDS011;69081;53.572;9.970;2023-09-30T02:37:01;3.72;;;2.28;;
79597;SDS011;69081;53.572;9.970;2023-09-30T02:39:29;3.38;;;2.40;;
79597;SDS011;69081;53.572;9.970;2023-09-30T02:41:58;2.80;;;2.33;;
79597;SDS011;69081;53.572;9.970;2023-09-30T02:44:26;2.25;;;1.80;;
79597;SDS011;69081;53.572;9.970;2023-09-30T02:46:54;3.28;;;2.05;;
79597;SDS011;69081;53.572;9.970;2023-09-30T02:49:23;3.13;;;2.70;;
79597;SDS011;69081;53.572;9.970;2023-09-30T02:51:51;3.22;;;2.40;;
79597;SDS011;69081;53.572;9.970;2023-09-30T02:54:19;2.58;;;2.17;;
79597;SDS011;69081;53.572;9.970;2023-09-30T02:56:47;4.25;;;2.45;;
79597;SDS011;69081;53.572;9.970;2023-09-30T02:59:15;2.97;;;2.00;;
79597;SDS011;69081;53.572;9.970;2023-09-30T03:01:45;3.17;;;2.28;;
79597;SDS011;69081;53.572;9.970;2023-09-30T03:06:47;3.75;;;2.10;;
79597;SDS011;69081;53.572;9.970;2023-09-30T03:09:15;3.47;;;2.40;;
79597;SDS011;69081;53.572;9.970;2023-09-30T03:11:43;3.75;;;2.50;;
79597;SDS011;69081;53.572;9.970;2023-09-30T03:14:13;2.63;;;2.22;;
79597;SDS011;69081;53.572;9.970;2023-09-30T03:16:40;2.75;;;2.03;;
79597;SDS011;69081;53.572;9.970;2023-09-30T03:19:11;3.42;;;2.17;;
79597;SDS011;69081;53.572;9.970;2023-09-30T03:21:39;3.38;;;2.55;;
79597;SDS011;69081;53.572;9.970;2023-09-30T03:24:08;6.00;;;2.55;;
79597;SDS011;69081;53.572;9.970;2023-09-30T03:26:38;4.18;;;2.42;;
79597;SDS011;69081;53.572;9.970;2023-09-30T03:29:07;2.53;;;2.00;;
79597;SDS011;69081;53.572;9.970;2023-09-30T03:31:36;4.65;;;2.15;;
79597;SDS011;69081;53.572;9.970;2023-09-30T03:34:04;2.80;;;1.92;;
79597;SDS011;69081;53.572;9.970;2023-09-30T03:36:33;4.18;;;2.60;;
79597;SDS011;69081;53.572;9.970;2023-09-30T03:39:02;2.55;;;2.05;;
79597;SDS011;69081;53.572;9.970;2023-09-30T03:41:36;2.95;;;2.33;;
79597;SDS011;69081;53.572;9.970;2023-09-30T03:44:04;3.67;;;2.42;;
79597;SDS011;69081;53.572;9.970;2023-09-30T03:46:32;2.75;;;2.00;;
79597;SDS011;69081;53.572;9.970;2023-09-30T03:49:01;4.13;;;1.85;;
79597;SDS011;69081;53.572;9.970;2023-09-30T03:51:29;3.92;;;2.30;;
79597;SDS011;69081;53.572;9.970;2023-09-30T03:53:57;4.18;;;2.22;;
79597;SDS011;69081;53.572;9.970;2023-09-30T03:56:29;2.85;;;2.00;;
79597;SDS011;69081;53.572;9.970;2023-09-30T03:58:59;4.05;;;2.15;;
79597;SDS011;69081;53.572;9.970;2023-09-30T04:01:27;3.65;;;2.03;;
79597;SDS011;69081;53.572;9.970;2023-09-30T04:03:55;4.10;;;2.53;;
79597;SDS011;69081;53.572;9.970;2023-09-30T04:06:24;3.92;;;2.00;;
79597;SDS011;69081;53.572;9.970;2023-09-30T04:08:52;4.57;;;2.00;;
79597;SDS011;69081;53.572;9.970;2023-09-30T04:11:20;4.00;;;2.40;;
79597;SDS011;69081;53.572;9.970;2023-09-30T04:13:48;3.20;;;2.22;;
79597;SDS011;69081;53.572;9.970;2023-09-30T04:16:18;4.70;;;2.10;;
79597;SDS011;69081;53.572;9.970;2023-09-30T04:18:47;6.38;;;2.35;;
79597;SDS011;69081;53.572;9.970;2023-09-30T04:21:16;3.67;;;2.05;;
79597;SDS011;69081;53.572;9.970;2023-09-30T04:23:44;4.03;;;2.17;;
79597;SDS011;69081;53.572;9.970;2023-09-30T04:26:12;5.30;;;2.60;;
79597;SDS011;69081;53.572;9.970;2023-09-30T04:28:41;5.40;;;2.38;;
79597;SDS011;69081;53.572;9.970;2023-09-30T04:31:10;4.45;;;2.15;;
79597;SDS011;69081;53.572;9.970;2023-09-30T04:33:41;4.13;;;2.45;;
79597;SDS011;69081;53.572;9.970;2023-09-30T04:36:09;4.45;;;2.42;;
79597;SDS011;69081;53.572;9.970;2023-09-30T04:38:37;4.32;;;2.05;;
79597;SDS011;69081;53.572;9.970;2023-09-30T04:41:05;4.28;;;2.20;;
79597;SDS011;69081;53.572;9.970;2023-09-30T04:43:35;4.78;;;2.40;;
79597;SDS011;69081;53.572;9.970;2023-09-30T04:46:04;2.83;;;2.05;;
79597;SDS011;69081;53.572;9.970;2023-09-30T04:48:33;3.97;;;2.28;;
79597;SDS011;69081;53.572;9.970;2023-09-30T04:51:05;4.60;;;2.30;;
79597;SDS011;69081;53.572;9.970;2023-09-30T04:53:35;6.47;;;2.45;;
79597;SDS011;69081;53.572;9.970;2023-09-30T04:56:03;4.45;;;2.65;;
79597;SDS011;69081;53.572;9.970;2023-09-30T04:58:31;5.78;;;2.05;;
79597;SDS011;69081;53.572;9.970;2023-09-30T05:00:59;5.03;;;2.53;;
79597;SDS011;69081;53.572;9.970;2023-09-30T05:03:28;3.78;;;2.00;;
79597;SDS011;69081;53.572;9.970;2023-09-30T05:05:56;4.88;;;2.10;;
79597;SDS011;69081;53.572;9.970;2023-09-30T05:08:26;4.78;;;1.95;;
79597;SDS011;69081;53.572;9.970;2023-09-30T05:10:55;6.05;;;2.38;;
79597;SDS011;69081;53.572;9.970;2023-09-30T05:13:24;4.63;;;2.20;;
79597;SDS011;69081;53.572;9.970;2023-09-30T05:15:52;5.35;;;2.17;;
79597;SDS011;69081;53.572;9.970;2023-09-30T05:18:21;5.40;;;2.28;;
79597;SDS011;69081;53.572;9.970;2023-09-30T05:20:50;3.60;;;1.98;;
79597;SDS011;69081;53.572;9.970;2023-09-30T05:23:18;3.45;;;2.22;;
79597;SDS011;69081;53.572;9.970;2023-09-30T05:25:48;8.20;;;2.63;;
79597;SDS011;69081;53.572;9.970;2023-09-30T05:28:16;5.07;;;2.42;;
79597;SDS011;69081;53.572;9.970;2023-09-30T05:33:13;6.72;;;2.72;;
79597;SDS011;69081;53.572;9.970;2023-09-30T05:35:41;10.05;;;3.28;;
79597;SDS011;69081;53.572;9.970;2023-09-30T05:38:09;7.13;;;2.92;;
79597;SDS011;69081;53.572;9.970;2023-09-30T05:40:39;5.35;;;2.10;;
79597;SDS011;69081;53.572;9.970;2023-09-30T05:43:09;6.22;;;2.58;;
79597;SDS011;69081;53.572;9.970;2023-09-30T05:45:40;5.22;;;2.33;;
79597;SDS011;69081;53.572;9.970;2023-09-30T05:48:16;7.28;;;2.40;;
79597;SDS011;69081;53.572;9.970;2023-09-30T05:50:44;6.28;;;2.58;;
79597;SDS011;69081;53.572;9.970;2023-09-30T05:53:12;5.63;;;2.13;;
79597;SDS011;69081;53.572;9.970;2023-09-30T05:55:40;5.03;;;2.80;;
79597;SDS011;69081;53.572;9.970;2023-09-30T05:58:12;5.35;;;2.40;;
79597;SDS011;69081;53.572;9.970;2023-09-30T06:00:41;4.45;;;2.55;;
79597;SDS011;69081;53.572;9.970;2023-09-30T06:03:09;4.30;;;2.20;;
79597;SDS011;69081;53.572;9.970;2023-09-30T06:05:39;6.47;;;2.10;;
79597;SDS011;69081;53.572;9.970;2023-09-30T06:08:08;4.13;;;2.22;;
79597;SDS011;69081;53.572;9.970;2023-09-30T06:10:40;6.60;;;2.00;;
79597;SDS011;69081;53.572;9.970;2023-09-30T06:13:11;5.95;;;1.88;;
79597;SDS011;69081;53.572;9.970;2023-09-30T06:15:42;2.97;;;1.90;;
79597;SDS011;69081;53.572;9.970;2023-09-30T06:20:41;5.32;;;2.38;;
79597;SDS011;69081;53.572;9.970;2023-09-30T06:23:09;5.50;;;2.38;;
79597;SDS011;69081;53.572;9.970;2023-09-30T06:25:37;4.82;;;2.00;;
79597;SDS011;69081;53.572;9.970;2023-09-30T06:28:06;3.05;;;1.80;;
79597;SDS011;69081;53.572;9.970;2023-09-30T06:30:37;3.50;;;1.85;;
79597;SDS011;69081;53.572;9.970;2023-09-30T06:33:05;3.15;;;1.95;;
79597;SDS011;69081;53.572;9.970;2023-09-30T06:35:34;4.03;;;2.10;;
79597;SDS011;69081;53.572;9.970;2023-09-30T06:38:05;3.78;;;2.20;;
79597;SDS011;69081;53.572;9.970;2023-09-30T06:40:34;3.25;;;2.13;;
79597;SDS011;69081;53.572;9.970;2023-09-30T06:43:06;6.13;;;2.40;;
79597;SDS011;69081;53.572;9.970;2023-09-30T06:45:34;2.67;;;1.85;;
79597;SDS011;69081;53.572;9.970;2023-09-30T06:48:10;4.00;;;2.00;;
79597;SDS011;69081;53.572;9.970;2023-09-30T06:50:40;3.75;;;2.00;;
79597;SDS011;69081;53.572;9.970;2023-09-30T06:53:11;4.95;;;2.00;;
79597;SDS011;69081;53.572;9.970;2023-09-30T06:55:39;3.22;;;1.90;;
79597;SDS011;69081;53.572;9.970;2023-09-30T06:58:07;3.05;;;1.83;;
79597;SDS011;69081;53.572;9.970;2023-09-30T07:00:37;4.00;;;2.33;;
79597;SDS011;69081;53.572;9.970;2023-09-30T07:03:05;3.10;;;1.80;;
79597;SDS011;69081;53.572;9.970;2023-09-30T07:05:35;4.57;;;2.03;;
79597;SDS011;69081;53.572;9.970;2023-09-30T07:08:10;3.75;;;2.03;;
79597;SDS011;69081;53.572;9.970;2023-09-30T07:10:38;3.97;;;2.10;;
79597;SDS011;69081;53.572;9.970;2023-09-30T07:13:06;3.40;;;2.17;;
79597;SDS011;69081;53.572;9.970;2023-09-30T07:15:35;2.53;;;1.88;;
79597;SDS011;69081;53.572;9.970;2023-09-30T07:18:03;3.20;;;1.75;;
79597;SDS011;69081;53.572;9.970;2023-09-30T07:20:31;4.18;;;1.90;;
79597;SDS011;69081;53.572;9.970;2023-09-30T07:23:01;4.05;;;2.25;;
79597;SDS011;69081;53.572;9.970;2023-09-30T07:25:44;3.13;;;1.80;;
79597;SDS011;69081;53.572;9.970;2023-09-30T07:28:13;3.20;;;2.00;;
79597;SDS011;69081;53.572;9.970;2023-09-30T07:30:41;3.17;;;1.80;;
79597;SDS011;69081;53.572;9.970;2023-09-30T07:33:09;4.25;;;2.03;;
79597;SDS011;69081;53.572;9.970;2023-09-30T07:35:37;3.45;;;1.90;;
79597;SDS011;69081;53.572;9.970;2023-09-30T07:38:07;5.25;;;2.38;;
79597;SDS011;69081;53.572;9.970;2023-09-30T07:40:35;3.05;;;1.98;;
79597;SDS011;69081;53.572;9.970;2023-09-30T07:43:03;4.70;;;2.35;;
79597;SDS011;69081;53.572;9.970;2023-09-30T07:45:32;3.40;;;1.85;;
79597;SDS011;69081;53.572;9.970;2023-09-30T07:48:00;3.55;;;2.10;;
79597;SDS011;69081;53.572;9.970;2023-09-30T07:50:31;4.47;;;1.85;;
79597;SDS011;69081;53.572;9.970;2023-09-30T07:53:00;3.42;;;2.13;;
79597;SDS011;69081;53.572;9.970;2023-09-30T07:55:30;3.78;;;2.30;;
79597;SDS011;69081;53.572;9.970;2023-09-30T07:57:58;3.75;;;1.92;;
79597;SDS011;69081;53.572;9.970;2023-09-30T08:00:27;4.65;;;2.10;;
79597;SDS011;69081;53.572;9.970;2023-09-30T08:02:56;2.80;;;1.95;;
79597;SDS011;69081;53.572;9.970;2023-09-30T08:05:27;3.92;;;2.17;;
79597;SDS011;69081;53.572;9.970;2023-09-30T08:07:55;3.28;;;2.08;;
79597;SDS011;69081;53.572;9.970;2023-09-30T08:10:23;2.70;;;1.92;;
79597;SDS011;69081;53.572;9.970;2023-09-30T08:12:52;2.78;;;1.83;;
79597;SDS011;69081;53.572;9.970;2023-09-30T08:15:24;3.70;;;1.88;;
79597;SDS011;69081;53.572;9.970;2023-09-30T08:17:52;4.82;;;2.05;;
79597;SDS011;69081;53.572;9.970;2023-09-30T08:20:20;6.22;;;2.35;;
79597;SDS011;69081;53.572;9.970;2023-09-30T08:22:48;6.15;;;2.08;;
79597;SDS011;69081;53.572;9.970;2023-09-30T08:25:16;4.22;;;1.98;;
79597;SDS011;69081;53.572;9.970;2023-09-30T08:27:44;3.58;;;1.85;;
79597;SDS011;69081;53.572;9.970;2023-09-30T08:30:17;4.97;;;2.45;;
79597;SDS011;69081;53.572;9.970;2023-09-30T08:32:46;6.28;;;2.55;;
79597;SDS011;69081;53.572;9.970;2023-09-30T08:35:14;4.78;;;1.95;;
79597;SDS011;69081;53.572;9.970;2023-09-30T08:37:42;5.80;;;1.90;;
79597;SDS011;69081;53.572;9.970;2023-09-30T08:40:10;3.95;;;2.00;;
79597;SDS011;69081;53.572;9.970;2023-09-30T08:42:39;3.83;;;1.80;;
79597;SDS011;69081;53.572;9.970;2023-09-30T08:45:08;4.63;;;2.47;;
79597;SDS011;69081;53.572;9.970;2023-09-30T08:47:39;2.45;;;1.73;;
79597;SDS011;69081;53.572;9.970;2023-09-30T08:50:08;3.90;;;2.00;;
79597;SDS011;69081;53.572;9.970;2023-09-30T08:52:37;3.60;;;1.70;;
79597;SDS011;69081;53.572;9.970;2023-09-30T08:55:07;4.13;;;1.90;;
79597;SDS011;69081;53.572;9.970;2023-09-30T08:57:36;3.38;;;2.20;;
79597;SDS011;69081;53.572;9.970;2023-09-30T09:00:07;2.75;;;2.00;;
79597;SDS011;69081;53.572;9.970;2023-09-30T09:02:41;4.88;;;1.90;;
79597;SDS011;69081;53.572;9.970;2023-09-30T09:05:09;3.05;;;2.35;;
79597;SDS011;69081;53.572;9.970;2023-09-30T09:07:38;2.65;;;1.80;;
79597;SDS011;69081;53.572;9.970;2023-09-30T09:10:07;5.07;;;2.03;;
79597;SDS011;69081;53.572;9.970;2023-09-30T09:12:37;4.88;;;1.90;;
79597;SDS011;69081;53.572;9.970;2023-09-30T09:15:06;3.05;;;1.88;;
79597;SDS011;69081;53.572;9.970;2023-09-30T09:17:46;4.20;;;2.03;;
79597;SDS011;69081;53.572;9.970;2023-09-30T09:20:16;3.92;;;2.47;;
79597;SDS011;69081;53.572;9.970;2023-09-30T09:22:47;4.30;;;2.33;;
79597;SDS011;69081;53.572;9.970;2023-09-30T09:25:17;5.03;;;2.53;;
79597;SDS011;69081;53.572;9.970;2023-09-30T09:27:45;5.85;;;2.53;;
79597;SDS011;69081;53.572;9.970;2023-09-30T09:30:17;2.97;;;1.77;;
79597;SDS011;69081;53.572;9.970;2023-09-30T09:38:07;3.17;;;1.75;;
79597;SDS011;69081;53.572;9.970;2023-09-30T09:40:36;3.08;;;1.92;;
79597;SDS011;69081;53.572;9.970;2023-09-30T09:43:07;3.58;;;2.03;;
79597;SDS011;69081;53.572;9.970;2023-09-30T09:48:05;4.75;;;2.42;;
79597;SDS011;69081;53.572;9.970;2023-09-30T09:50:35;4.10;;;2.00;;
79597;SDS011;69081;53.572;9.970;2023-09-30T09:53:05;3.53;;;1.85;;
79597;SDS011;69081;53.572;9.970;2023-09-30T09:55:33;4.75;;;2.17;;
79597;SDS011;69081;53.572;9.970;2023-09-30T09:58:05;4.13;;;2.10;;
79597;SDS011;69081;53.572;9.970;2023-09-30T10:00:35;4.60;;;2.00;;
79597;SDS011;69081;53.572;9.970;2023-09-30T10:03:03;4.15;;;1.63;;
79597;SDS011;69081;53.572;9.970;2023-09-30T10:05:32;3.08;;;1.83;;
79597;SDS011;69081;53.572;9.970;2023-09-30T10:08:02;4.25;;;1.70;;
79597;SDS011;69081;53.572;9.970;2023-09-30T10:10:34;3.22;;;1.90;;
79597;SDS011;69081;53.572;9.970;2023-09-30T10:13:03;2.80;;;1.73;;
79597;SDS011;69081;53.572;9.970;2023-09-30T10:15:36;3.40;;;1.90;;
79597;SDS011;69081;53.572;9.970;2023-09-30T10:18:07;5.00;;;1.50;;
79597;SDS011;69081;53.572;9.970;2023-09-30T10:20:42;3.13;;;1.77;;
79597;SDS011;69081;53.572;9.970;2023-09-30T10:26:14;3.85;;;1.80;;
79597;SDS011;69081;53.572;9.970;2023-09-30T10:28:45;2.97;;;1.95;;
79597;SDS011;69081;53.572;9.970;2023-09-30T10:31:17;3.47;;;1.80;;
79597;SDS011;69081;53.572;9.970;2023-09-30T10:36:48;2.45;;;1.60;;
79597;SDS011;69081;53.572;9.970;2023-09-30T10:42:44;4.50;;;2.30;;
79597;SDS011;69081;53.572;9.970;2023-09-30T10:51:12;3.33;;;2.05;;
79597;SDS011;69081;53.572;9.970;2023-09-30T10:53:43;2.45;;;1.50;;
79597;SDS011;69081;53.572;9.970;2023-09-30T10:56:14;3.40;;;1.67;;
79597;SDS011;69081;53.572;9.970;2023-09-30T10:58:44;2.88;;;1.80;;
79597;SDS011;69081;53.572;9.970;2023-09-30T11:01:13;2.83;;;1.70;;
79597;SDS011;69081;53.572;9.970;2023-09-30T11:03:42;3.25;;;1.80;;
79597;SDS011;69081;53.572;9.970;2023-09-30T11:06:11;3.47;;;1.88;;
79597;SDS011;69081;53.572;9.970;2023-09-30T11:08:45;3.05;;;1.65;;
79597;SDS011;69081;53.572;9.970;2023-09-30T11:11:16;4.88;;;2.08;;
79597;SDS011;69081;53.572;9.970;2023-09-30T11:13:44;4.05;;;1.90;;
79597;SDS011;69081;53.572;9.970;2023-09-30T11:16:12;3.10;;;1.38;;
79597;SDS011;69081;53.572;9.970;2023-09-30T11:18:40;3.17;;;1.80;;
79597;SDS011;69081;53.572;9.970;2023-09-30T11:23:40;2.97;;;1.70;;
79597;SDS011;69081;53.572;9.970;2023-09-30T11:26:08;2.80;;;1.77;;
79597;SDS011;69081;53.572;9.970;2023-09-30T11:28:38;2.90;;;1.50;;
79597;SDS011;69081;53.572;9.970;2023-09-30T11:31:08;3.10;;;1.52;;
79597;SDS011;69081;53.572;9.970;2023-09-30T11:33:48;2.88;;;1.73;;
79597;SDS011;69081;53.572;9.970;2023-09-30T11:36:19;1.98;;;1.50;;
79597;SDS011;69081;53.572;9.970;2023-09-30T11:38:48;1.92;;;1.42;;
79597;SDS011;69081;53.572;9.970;2023-09-30T11:41:19;2.47;;;1.50;;
79597;SDS011;69081;53.572;9.970;2023-09-30T11:43:59;3.97;;;2.10;;
79597;SDS011;69081;53.572;9.970;2023-09-30T11:46:31;3.72;;;1.90;;
79597;SDS011;69081;53.572;9.970;2023-09-30T11:49:00;2.58;;;1.70;;
79597;SDS011;69081;53.572;9.970;2023-09-30T11:51:29;3.35;;;2.28;;
79597;SDS011;69081;53.572;9.970;2023-09-30T11:53:57;2.03;;;1.40;;
79597;SDS011;69081;53.572;9.970;2023-09-30T11:56:28;2.00;;;1.40;;
79597;SDS011;69081;53.572;9.970;2023-09-30T11:58:56;3.25;;;2.13;;
79597;SDS011;69081;53.572;9.970;2023-09-30T12:01:27;2.55;;;1.55;;
79597;SDS011;69081;53.572;9.970;2023-09-30T12:03:57;2.13;;;1.50;;
79597;SDS011;69081;53.572;9.970;2023-09-30T12:08:54;4.18;;;1.50;;
79597;SDS011;69081;53.572;9.970;2023-09-30T12:11:24;2.88;;;1.85;;
79597;SDS011;69081;53.572;9.970;2023-09-30T12:13:52;2.28;;;1.98;;
79597;SDS011;69081;53.572;9.970;2023-09-30T12:16:20;3.20;;;1.50;;
79597;SDS011;69081;53.572;9.970;2023-09-30T12:18:51;3.08;;;1.60;;
79597;SDS011;69081;53.572;9.970;2023-09-30T12:21:19;4.28;;;1.60;;
79597;SDS011;69081;53.572;9.970;2023-09-30T12:23:49;2.83;;;1.80;;
79597;SDS011;69081;53.572;9.970;2023-09-30T12:26:18;3.08;;;1.70;;
79597;SDS011;69081;53.572;9.970;2023-09-30T12:28:46;3.00;;;1.70;;
79597;SDS011;69081;53.572;9.970;2023-09-30T12:31:14;2.13;;;1.50;;
79597;SDS011;69081;53.572;9.970;2023-09-30T12:33:43;2.33;;;1.40;;
79597;SDS011;69081;53.572;9.970;2023-09-30T12:36:18;3.33;;;1.58;;
79597;SDS011;69081;53.572;9.970;2023-09-30T12:38:46;2.25;;;1.50;;
79597;SDS011;69081;53.572;9.970;2023-09-30T12:41:14;2.22;;;1.40;;
79597;SDS011;69081;53.572;9.970;2023-09-30T12:43:45;3.08;;;1.80;;
79597;SDS011;69081;53.572;9.970;2023-09-30T12:46:13;3.58;;;2.00;;
79597;SDS011;69081;53.572;9.970;2023-09-30T12:48:43;3.63;;;1.80;;
79597;SDS011;69081;53.572;9.970;2023-09-30T12:51:11;6.10;;;1.95;;
79597;SDS011;69081;53.572;9.970;2023-09-30T12:53:40;2.25;;;1.40;;
79597;SDS011;69081;53.572;9.970;2023-09-30T12:56:08;3.05;;;1.35;;
79597;SDS011;69081;53.572;9.970;2023-09-30T12:58:37;2.63;;;1.70;;
79597;SDS011;69081;53.572;9.970;2023-09-30T13:01:05;2.47;;;1.52;;
79597;SDS011;69081;53.572;9.970;2023-09-30T13:03:48;2.17;;;1.38;;
79597;SDS011;69081;53.572;9.970;2023-09-30T13:08:46;1.63;;;1.20;;
79597;SDS011;69081;53.572;9.970;2023-09-30T13:11:14;3.10;;;1.42;;
79597;SDS011;69081;53.572;9.970;2023-09-30T13:13:42;2.83;;;1.60;;
79597;SDS011;69081;53.572;9.970;2023-09-30T13:16:12;2.15;;;1.40;;
79597;SDS011;69081;53.572;9.970;2023-09-30T13:18:40;3.20;;;1.70;;
79597;SDS011;69081;53.572;9.970;2023-09-30T13:21:09;1.92;;;1.45;;
79597;SDS011;69081;53.572;9.970;2023-09-30T13:23:38;1.92;;;1.23;;
79597;SDS011;69081;53.572;9.970;2023-09-30T13:26:08;2.53;;;1.60;;
79597;SDS011;69081;53.572;9.970;2023-09-30T13:28:36;3.65;;;2.08;;
79597;SDS011;69081;53.572;9.970;2023-09-30T13:31:04;2.28;;;1.45;;
79597;SDS011;69081;53.572;9.970;2023-09-30T13:33:32;2.92;;;1.50;;
79597;SDS011;69081;53.572;9.970;2023-09-30T13:36:00;2.42;;;1.60;;
79597;SDS011;69081;53.572;9.970;2023-09-30T13:38:29;2.35;;;1.60;;
79597;SDS011;69081;53.572;9.970;2023-09-30T13:40:57;2.83;;;1.70;;
79597;SDS011;69081;53.572;9.970;2023-09-30T13:43:26;2.05;;;1.50;;
79597;SDS011;69081;53.572;9.970;2023-09-30T13:45:54;2.50;;;1.65;;
79597;SDS011;69081;53.572;9.970;2023-09-30T13:48:22;2.05;;;1.30;;
79597;SDS011;69081;53.572;9.970;2023-09-30T13:53:19;4.50;;;1.95;;
79597;SDS011;69081;53.572;9.970;2023-09-30T13:55:47;2.22;;;1.52;;
79597;SDS011;69081;53.572;9.970;2023-09-30T13:58:16;3.13;;;1.63;;
79597;SDS011;69081;53.572;9.970;2023-09-30T14:00:47;2.47;;;1.60;;
79597;SDS011;69081;53.572;9.970;2023-09-30T14:03:15;2.58;;;1.40;;
79597;SDS011;69081;53.572;9.970;2023-09-30T14:05:44;3.30;;;1.65;;
79597;SDS011;69081;53.572;9.970;2023-09-30T14:08:13;2.88;;;1.65;;
79597;SDS011;69081;53.572;9.970;2023-09-30T14:10:41;2.47;;;1.70;;
79597;SDS011;69081;53.572;9.970;2023-09-30T14:13:10;2.40;;;1.60;;
79597;SDS011;69081;53.572;9.970;2023-09-30T14:15:38;2.42;;;1.70;;
79597;SDS011;69081;53.572;9.970;2023-09-30T14:18:08;3.05;;;1.40;;
79597;SDS011;69081;53.572;9.970;2023-09-30T14:20:36;4.20;;;1.77;;
79597;SDS011;69081;53.572;9.970;2023-09-30T14:23:04;1.50;;;1.40;;
79597;SDS011;69081;53.572;9.970;2023-09-30T14:25:32;2.50;;;1.77;;
79597;SDS011;69081;53.572;9.970;2023-09-30T14:28:00;2.08;;;1.30;;
79597;SDS011;69081;53.572;9.970;2023-09-30T14:30:29;2.85;;;1.70;;
79597;SDS011;69081;53.572;9.970;2023-09-30T14:32:57;3.47;;;1.83;;
79597;SDS011;69081;53.572;9.970;2023-09-30T14:35:26;2.72;;;1.50;;
79597;SDS011;69081;53.572;9.970;2023-09-30T14:37:55;3.45;;;1.70;;
79597;SDS011;69081;53.572;9.970;2023-09-30T14:42:51;2.25;;;1.23;;
79597;SDS011;69081;53.572;9.970;2023-09-30T14:45:19;2.67;;;1.55;;
79597;SDS011;69081;53.572;9.970;2023-09-30T14:50:16;1.85;;;1.50;;
79597;SDS011;69081;53.572;9.970;2023-09-30T14:52:45;4.05;;;1.70;;
79597;SDS011;69081;53.572;9.970;2023-09-30T14:55:13;2.40;;;1.70;;
79597;SDS011;69081;53.572;9.970;2023-09-30T14:57:42;2.45;;;1.50;;
79597;SDS011;69081;53.572;9.970;2023-09-30T15:00:11;2.67;;;1.63;;
79597;SDS011;69081;53.572;9.970;2023-09-30T15:02:42;2.33;;;1.50;;
79597;SDS011;69081;53.572;9.970;2023-09-30T15:05:10;2.08;;;1.40;;
79597;SDS011;69081;53.572;9.970;2023-09-30T15:07:38;3.33;;;1.50;;
79597;SDS011;69081;53.572;9.970;2023-09-30T15:10:08;2.50;;;1.42;;
79597;SDS011;69081;53.572;9.970;2023-09-30T15:12:36;4.82;;;1.40;;
79597;SDS011;69081;53.572;9.970;2023-09-30T15:15:05;2.38;;;1.27;;
79597;SDS011;69081;53.572;9.970;2023-09-30T15:17:34;1.52;;;1.23;;
79597;SDS011;69081;53.572;9.970;2023-09-30T15:20:02;2.53;;;1.85;;
79597;SDS011;69081;53.572;9.970;2023-09-30T15:22:31;3.55;;;1.50;;
79597;SDS011;69081;53.572;9.970;2023-09-30T15:24:59;2.75;;;1.45;;
79597;SDS011;69081;53.572;9.970;2023-09-30T15:27:28;3.22;;;1.63;;
79597;SDS011;69081;53.572;9.970;2023-09-30T15:29:58;3.42;;;2.05;;
79597;SDS011;69081;53.572;9.970;2023-09-30T15:32:27;1.98;;;1.45;;
79597;SDS011;69081;53.572;9.970;2023-09-30T15:34:55;2.15;;;1.55;;
79597;SDS011;69081;53.572;9.970;2023-09-30T15:37:23;4.78;;;1.63;;
79597;SDS011;69081;53.572;9.970;2023-09-30T15:39:51;4.82;;;2.08;;
79597;SDS011;69081;53.572;9.970;2023-09-30T15:42:19;2.03;;;1.35;;
79597;SDS011;69081;53.572;9.970;2023-09-30T15:44:48;3.30;;;1.67;;